< < Back
Terminal Aerodrome Forecast


Current Version              Previous Versions:   1  2  3  4  5  6  7  8  9  

Terminal Aerodrome Forecast

319
FTUS42 KTAE 201120
TAFVLD
TAF
KVLD 201120Z 2012/2112 19003KT 1SM BR OVC003
     FM201400 20002KT P6SM BKN007
     FM201600 22010KT P6SM SHRA VCTS BKN025CB OVC100
      TEMPO 2016/2018 VRB20G30KT 1SM +TSRA
     FM202000 VRB06KT P6SM SCT060
     FM210500 32002KT P6SM BKN025=

Latest METAR

683
SAUS70 KWBC 210800 RRG
MTRVLD
METAR KVLD 210753Z AUTO 00000KT 9SM OVC005 19/19 A2990 RMK AO2 CIG
003V012 SLP130 T01890189 TSNO


USA.gov is the U.S. government's official web portal to all federal, state and local government web resources and services.